sensor_id;sensor_type;location;lat;lon;timestamp;temperature;humidity
1351;DHT22;669;50.206;9.998;2022-12-18T00:01:51;-10.20;57.00
1351;DHT22;669;50.206;9.998;2022-12-18T00:04:22;-10.10;57.10
1351;DHT22;669;50.206;9.998;2022-12-18T00:06:50;-10.10;57.30
1351;DHT22;669;50.206;9.998;2022-12-18T00:09:18;-10.10;57.10
1351;DHT22;669;50.206;9.998;2022-12-18T00:11:47;-10.10;57.10
1351;DHT22;669;50.206;9.998;2022-12-18T00:14:15;-10.10;56.60
1351;DHT22;669;50.206;9.998;2022-12-18T00:16:45;-10.20;56.40
1351;DHT22;669;50.206;9.998;2022-12-18T00:19:14;-10.20;56.70
1351;DHT22;669;50.206;9.998;2022-12-18T00:21:43;-10.20;57.00
1351;DHT22;669;50.206;9.998;2022-12-18T00:24:11;-9.90;58.50
1351;DHT22;669;50.206;9.998;2022-12-18T00:26:39;-10.10;57.10
1351;DHT22;669;50.206;9.998;2022-12-18T00:29:10;-10.10;55.50
1351;DHT22;669;50.206;9.998;2022-12-18T00:31:41;-10.20;55.20
1351;DHT22;669;50.206;9.998;2022-12-18T00:34:12;-10.10;55.30
1351;DHT22;669;50.206;9.998;2022-12-18T00:36:41;-10.20;55.10
1351;DHT22;669;50.206;9.998;2022-12-18T00:39:10;-10.30;55.10
1351;DHT22;669;50.206;9.998;2022-12-18T00:41:38;-10.50;56.10
1351;DHT22;669;50.206;9.998;2022-12-18T00:44:24;-10.40;57.00
1351;DHT22;669;50.206;9.998;2022-12-18T00:46:52;-10.20;58.50
1351;DHT22;669;50.206;9.998;2022-12-18T00:49:21;-10.20;59.00
1351;DHT22;669;50.206;9.998;2022-12-18T00:51:49;-10.20;58.00
1351;DHT22;669;50.206;9.998;2022-12-18T00:54:17;-10.10;57.10
1351;DHT22;669;50.206;9.998;2022-12-18T00:56:45;-10.10;56.70
1351;DHT22;669;50.206;9.998;2022-12-18T00:59:16;-10.20;57.00
1351;DHT22;669;50.206;9.998;2022-12-18T01:01:44;-10.20;57.00
1351;DHT22;669;50.206;9.998;2022-12-18T01:04:12;-10.00;58.50
1351;DHT22;669;50.206;9.998;2022-12-18T01:06:42;-10.10;58.10
1351;DHT22;669;50.206;9.998;2022-12-18T01:09:10;-9.90;58.90
1351;DHT22;669;50.206;9.998;2022-12-18T01:11:38;-10.00;58.80
1351;DHT22;669;50.206;9.998;2022-12-18T01:14:06;-9.90;58.20
1351;DHT22;669;50.206;9.998;2022-12-18T01:16:34;-9.90;57.30
1351;DHT22;669;50.206;9.998;2022-12-18T01:19:02;-9.90;57.00
1351;DHT22;669;50.206;9.998;2022-12-18T01:21:30;-9.80;56.60
1351;DHT22;669;50.206;9.998;2022-12-18T01:23:59;-10.00;56.50
1351;DHT22;669;50.206;9.998;2022-12-18T01:26:27;-10.00;56.70
1351;DHT22;669;50.206;9.998;2022-12-18T01:28:57;-10.00;57.20
1351;DHT22;669;50.206;9.998;2022-12-18T01:31:26;-10.00;56.80
1351;DHT22;669;50.206;9.998;2022-12-18T01:33:55;-10.00;57.20
1351;DHT22;669;50.206;9.998;2022-12-18T01:36:24;-9.90;58.60
1351;DHT22;669;50.206;9.998;2022-12-18T01:38:53;-9.80;59.30
1351;DHT22;669;50.206;9.998;2022-12-18T01:41:24;-9.70;59.60
1351;DHT22;669;50.206;9.998;2022-12-18T01:43:54;-9.60;60.20
1351;DHT22;669;50.206;9.998;2022-12-18T01:46:25;-9.60;60.20
1351;DHT22;669;50.206;9.998;2022-12-18T01:48:55;-9.50;59.80
1351;DHT22;669;50.206;9.998;2022-12-18T01:51:24;-9.60;58.50
1351;DHT22;669;50.206;9.998;2022-12-18T01:53:54;-9.60;59.00
1351;DHT22;669;50.206;9.998;2022-12-18T01:56:23;-9.60;57.60
1351;DHT22;669;50.206;9.998;2022-12-18T01:58:54;-9.50;57.10
1351;DHT22;669;50.206;9.998;2022-12-18T02:01:24;-9.80;57.70
1351;DHT22;669;50.206;9.998;2022-12-18T02:03:53;-9.80;57.40
1351;DHT22;669;50.206;9.998;2022-12-18T02:06:24;-9.80;58.00
1351;DHT22;669;50.206;9.998;2022-12-18T02:09:03;-9.80;58.40
1351;DHT22;669;50.206;9.998;2022-12-18T02:11:44;-9.80;58.20
1351;DHT22;669;50.206;9.998;2022-12-18T02:14:23;-9.80;57.90
1351;DHT22;669;50.206;9.998;2022-12-18T02:17:00;-9.80;57.60
1351;DHT22;669;50.206;9.998;2022-12-18T02:19:42;-9.80;58.00
1351;DHT22;669;50.206;9.998;2022-12-18T02:22:29;-9.80;58.10
1351;DHT22;669;50.206;9.998;2022-12-18T02:25:10;-9.80;57.60
1351;DHT22;669;50.206;9.998;2022-12-18T02:27:43;-9.80;58.80
1351;DHT22;669;50.206;9.998;2022-12-18T02:30:13;-9.70;60.00
1351;DHT22;669;50.206;9.998;2022-12-18T02:32:44;-9.60;59.70
1351;DHT22;669;50.206;9.998;2022-12-18T02:35:16;-9.60;59.10
1351;DHT22;669;50.206;9.998;2022-12-18T02:37:46;-9.60;59.20
1351;DHT22;669;50.206;9.998;2022-12-18T02:40:15;-9.50;59.90
1351;DHT22;669;50.206;9.998;2022-12-18T02:42:46;-9.50;59.60
1351;DHT22;669;50.206;9.998;2022-12-18T02:45:14;-9.50;58.20
1351;DHT22;669;50.206;9.998;2022-12-18T02:47:45;-9.60;59.00
1351;DHT22;669;50.206;9.998;2022-12-18T02:50:18;-9.60;58.10
1351;DHT22;669;50.206;9.998;2022-12-18T02:52:56;-9.60;58.10
1351;DHT22;669;50.206;9.998;2022-12-18T02:55:33;-9.60;59.00
1351;DHT22;669;50.206;9.998;2022-12-18T02:58:13;-9.60;57.60
1351;DHT22;669;50.206;9.998;2022-12-18T03:00:46;-9.70;56.80
1351;DHT22;669;50.206;9.998;2022-12-18T03:03:19;-9.80;57.80
1351;DHT22;669;50.206;9.998;2022-12-18T03:05:53;-9.80;57.20
1351;DHT22;669;50.206;9.998;2022-12-18T03:08:25;-9.80;58.60
1351;DHT22;669;50.206;9.998;2022-12-18T03:10:57;-9.70;59.60
1351;DHT22;669;50.206;9.998;2022-12-18T03:13:30;-9.70;58.70
1351;DHT22;669;50.206;9.998;2022-12-18T03:16:00;-9.70;58.40
1351;DHT22;669;50.206;9.998;2022-12-18T03:18:32;-9.70;58.90
1351;DHT22;669;50.206;9.998;2022-12-18T03:21:05;-9.70;59.70
1351;DHT22;669;50.206;9.998;2022-12-18T03:23:37;-9.60;60.70
1351;DHT22;669;50.206;9.998;2022-12-18T03:26:10;-9.50;61.50
1351;DHT22;669;50.206;9.998;2022-12-18T03:28:44;-9.50;61.30
1351;DHT22;669;50.206;9.998;2022-12-18T03:31:14;-9.40;60.30
1351;DHT22;669;50.206;9.998;2022-12-18T03:33:46;-9.40;60.40
1351;DHT22;669;50.206;9.998;2022-12-18T03:36:15;-9.20;60.80
1351;DHT22;669;50.206;9.998;2022-12-18T03:38:43;-9.40;60.60
1351;DHT22;669;50.206;9.998;2022-12-18T03:41:16;-9.40;60.50
1351;DHT22;669;50.206;9.998;2022-12-18T03:43:49;-9.40;61.50
1351;DHT22;669;50.206;9.998;2022-12-18T03:46:26;-9.40;58.60
1351;DHT22;669;50.206;9.998;2022-12-18T03:48:59;-9.50;57.70
1351;DHT22;669;50.206;9.998;2022-12-18T03:51:36;-9.60;57.90
1351;DHT22;669;50.206;9.998;2022-12-18T03:54:06;-9.70;59.10
1351;DHT22;669;50.206;9.998;2022-12-18T03:56:39;-9.60;59.80
1351;DHT22;669;50.206;9.998;2022-12-18T03:59:12;-9.60;60.00
1351;DHT22;669;50.206;9.998;2022-12-18T04:01:46;-9.50;60.10
1351;DHT22;669;50.206;9.998;2022-12-18T04:04:15;-9.50;60.70
1351;DHT22;669;50.206;9.998;2022-12-18T04:06:45;-9.50;60.00
1351;DHT22;669;50.206;9.998;2022-12-18T04:09:13;-9.50;59.70
1351;DHT22;669;50.206;9.998;2022-12-18T04:11:42;-9.50;58.80
1351;DHT22;669;50.206;9.998;2022-12-18T04:14:12;-9.60;59.00
1351;DHT22;669;50.206;9.998;2022-12-18T04:16:44;-9.50;59.80
1351;DHT22;669;50.206;9.998;2022-12-18T04:19:12;-9.50;61.40
1351;DHT22;669;50.206;9.998;2022-12-18T04:21:40;-9.40;61.70
1351;DHT22;669;50.206;9.998;2022-12-18T04:24:08;-9.40;60.50
1351;DHT22;669;50.206;9.998;2022-12-18T04:26:36;-9.30;60.00
1351;DHT22;669;50.206;9.998;2022-12-18T04:29:04;-9.50;59.40
1351;DHT22;669;50.206;9.998;2022-12-18T04:31:34;-9.50;59.60
1351;DHT22;669;50.206;9.998;2022-12-18T04:34:02;-9.50;60.00
1351;DHT22;669;50.206;9.998;2022-12-18T04:36:30;-9.50;59.80
1351;DHT22;669;50.206;9.998;2022-12-18T04:38:58;-9.50;57.80
1351;DHT22;669;50.206;9.998;2022-12-18T04:41:26;-9.60;57.50
1351;DHT22;669;50.206;9.998;2022-12-18T04:43:54;-9.80;56.30
1351;DHT22;669;50.206;9.998;2022-12-18T04:46:22;-9.90;57.70
1351;DHT22;669;50.206;9.998;2022-12-18T04:48:51;-9.90;58.40
1351;DHT22;669;50.206;9.998;2022-12-18T04:51:19;-9.90;59.20
1351;DHT22;669;50.206;9.998;2022-12-18T04:53:52;-9.90;60.10
1351;DHT22;669;50.206;9.998;2022-12-18T04:56:20;-9.80;60.00
1351;DHT22;669;50.206;9.998;2022-12-18T04:58:48;-9.80;60.30
1351;DHT22;669;50.206;9.998;2022-12-18T05:01:17;-9.80;60.10
1351;DHT22;669;50.206;9.998;2022-12-18T05:03:45;-9.70;60.50
1351;DHT22;669;50.206;9.998;2022-12-18T05:06:15;-9.70;60.70
1351;DHT22;669;50.206;9.998;2022-12-18T05:08:43;-9.40;61.90
1351;DHT22;669;50.206;9.998;2022-12-18T05:11:13;-9.60;62.00
1351;DHT22;669;50.206;9.998;2022-12-18T05:13:42;-9.60;61.50
1351;DHT22;669;50.206;9.998;2022-12-18T05:16:12;-9.50;61.40
1351;DHT22;669;50.206;9.998;2022-12-18T05:18:41;-9.50;61.20
1351;DHT22;669;50.206;9.998;2022-12-18T05:21:09;-9.50;59.20
1351;DHT22;669;50.206;9.998;2022-12-18T05:23:38;-9.60;58.50
1351;DHT22;669;50.206;9.998;2022-12-18T05:26:07;-9.60;59.00
1351;DHT22;669;50.206;9.998;2022-12-18T05:28:35;-9.70;59.30
1351;DHT22;669;50.206;9.998;2022-12-18T05:31:04;-9.70;59.40
1351;DHT22;669;50.206;9.998;2022-12-18T05:33:34;-9.60;60.00
1351;DHT22;669;50.206;9.998;2022-12-18T05:36:04;-9.60;60.60
1351;DHT22;669;50.206;9.998;2022-12-18T05:38:34;-9.60;59.30
1351;DHT22;669;50.206;9.998;2022-12-18T05:41:04;-9.70;58.00
1351;DHT22;669;50.206;9.998;2022-12-18T05:43:34;-9.80;57.40
1351;DHT22;669;50.206;9.998;2022-12-18T05:46:06;-9.80;57.40
1351;DHT22;669;50.206;9.998;2022-12-18T05:48:34;-9.90;57.80
1351;DHT22;669;50.206;9.998;2022-12-18T05:51:04;-9.90;58.60
1351;DHT22;669;50.206;9.998;2022-12-18T05:53:34;-9.80;59.00
1351;DHT22;669;50.206;9.998;2022-12-18T05:56:07;-9.80;59.40
1351;DHT22;669;50.206;9.998;2022-12-18T05:58:35;-9.80;59.00
1351;DHT22;669;50.206;9.998;2022-12-18T06:01:08;-9.80;58.40
1351;DHT22;669;50.206;9.998;2022-12-18T06:03:37;-9.90;58.30
1351;DHT22;669;50.206;9.998;2022-12-18T06:06:13;-9.70;58.40
1351;DHT22;669;50.206;9.998;2022-12-18T06:08:41;-10.00;56.70
1351;DHT22;669;50.206;9.998;2022-12-18T06:11:17;-9.90;59.20
1351;DHT22;669;50.206;9.998;2022-12-18T06:13:45;-9.80;60.00
1351;DHT22;669;50.206;9.998;2022-12-18T06:16:13;-9.80;58.70
1351;DHT22;669;50.206;9.998;2022-12-18T06:19:14;-9.80;60.00
1351;DHT22;669;50.206;9.998;2022-12-18T06:21:42;-9.80;58.90
1351;DHT22;669;50.206;9.998;2022-12-18T06:24:10;-9.80;58.50
1351;DHT22;669;50.206;9.998;2022-12-18T06:26:39;-10.00;55.90
1351;DHT22;669;50.206;9.998;2022-12-18T06:29:08;-10.00;57.20
1351;DHT22;669;50.206;9.998;2022-12-18T06:31:35;-10.00;57.90
1351;DHT22;669;50.206;9.998;2022-12-18T06:34:04;-10.00;57.20
1351;DHT22;669;50.206;9.998;2022-12-18T06:36:32;-10.10;57.10
1351;DHT22;669;50.206;9.998;2022-12-18T06:39:00;-10.00;58.30
1351;DHT22;669;50.206;9.998;2022-12-18T06:41:28;-9.80;58.80
1351;DHT22;669;50.206;9.998;2022-12-18T06:43:57;-9.80;59.20
1351;DHT22;669;50.206;9.998;2022-12-18T06:46:27;-9.90;59.60
1351;DHT22;669;50.206;9.998;2022-12-18T06:48:55;-9.90;59.40
1351;DHT22;669;50.206;9.998;2022-12-18T06:51:23;-9.80;59.70
1351;DHT22;669;50.206;9.998;2022-12-18T06:53:51;-9.80;58.00
1351;DHT22;669;50.206;9.998;2022-12-18T06:56:19;-9.90;57.30
1351;DHT22;669;50.206;9.998;2022-12-18T06:58:47;-10.00;57.20
1351;DHT22;669;50.206;9.998;2022-12-18T07:01:18;-10.00;57.20
1351;DHT22;669;50.206;9.998;2022-12-18T07:03:46;-10.00;57.50
1351;DHT22;669;50.206;9.998;2022-12-18T07:06:15;-10.00;58.50
1351;DHT22;669;50.206;9.998;2022-12-18T07:08:44;-9.90;58.40
1351;DHT22;669;50.206;9.998;2022-12-18T07:11:12;-10.10;57.80
1351;DHT22;669;50.206;9.998;2022-12-18T07:13:40;-9.90;57.30
1351;DHT22;669;50.206;9.998;2022-12-18T07:16:10;-10.10;57.10
1351;DHT22;669;50.206;9.998;2022-12-18T07:18:48;-10.10;57.60
1351;DHT22;669;50.206;9.998;2022-12-18T07:21:18;-10.20;56.30
1351;DHT22;669;50.206;9.998;2022-12-18T07:23:46;-10.30;55.80
1351;DHT22;669;50.206;9.998;2022-12-18T07:26:17;-10.30;55.60
1351;DHT22;669;50.206;9.998;2022-12-18T07:28:46;-10.30;56.00
1351;DHT22;669;50.206;9.998;2022-12-18T07:31:16;-10.40;55.50
1351;DHT22;669;50.206;9.998;2022-12-18T07:33:45;-10.40;55.80
1351;DHT22;669;50.206;9.998;2022-12-18T07:36:14;-10.40;55.90
1351;DHT22;669;50.206;9.998;2022-12-18T07:38:42;-10.40;55.70
1351;DHT22;669;50.206;9.998;2022-12-18T07:41:12;-10.30;56.60
1351;DHT22;669;50.206;9.998;2022-12-18T07:43:40;-10.30;56.00
1351;DHT22;669;50.206;9.998;2022-12-18T07:46:10;-10.40;56.40
1351;DHT22;669;50.206;9.998;2022-12-18T07:48:40;-10.30;56.80
1351;DHT22;669;50.206;9.998;2022-12-18T07:51:11;-10.20;57.70
1351;DHT22;669;50.206;9.998;2022-12-18T07:53:42;-10.10;58.00
1351;DHT22;669;50.206;9.998;2022-12-18T07:56:11;-9.80;57.60
1351;DHT22;669;50.206;9.998;2022-12-18T07:58:57;-9.90;56.40
1351;DHT22;669;50.206;9.998;2022-12-18T08:01:26;-9.90;55.40
1351;DHT22;669;50.206;9.998;2022-12-18T08:03:54;-9.70;58.50
1351;DHT22;669;50.206;9.998;2022-12-18T08:06:23;-9.30;60.50
1351;DHT22;669;50.206;9.998;2022-12-18T08:08:53;-9.00;61.80
1351;DHT22;669;50.206;9.998;2022-12-18T08:11:22;-8.70;60.50
1351;DHT22;669;50.206;9.998;2022-12-18T08:13:51;-8.60;59.10
1351;DHT22;669;50.206;9.998;2022-12-18T08:16:20;-8.50;61.00
1351;DHT22;669;50.206;9.998;2022-12-18T08:18:48;-8.20;63.90
1351;DHT22;669;50.206;9.998;2022-12-18T08:21:18;-8.00;62.90
1351;DHT22;669;50.206;9.998;2022-12-18T08:23:50;-7.80;63.60
1351;DHT22;669;50.206;9.998;2022-12-18T08:26:20;-7.70;63.10
1351;DHT22;669;50.206;9.998;2022-12-18T08:28:48;-7.60;62.60
1351;DHT22;669;50.206;9.998;2022-12-18T08:31:17;-7.50;63.20
1351;DHT22;669;50.206;9.998;2022-12-18T08:33:48;-7.40;62.30
1351;DHT22;669;50.206;9.998;2022-12-18T08:36:17;-7.40;62.10
1351;DHT22;669;50.206;9.998;2022-12-18T08:38:45;-7.30;62.40
1351;DHT22;669;50.206;9.998;2022-12-18T08:41:14;-7.20;62.00
1351;DHT22;669;50.206;9.998;2022-12-18T08:43:44;-7.10;62.00
1351;DHT22;669;50.206;9.998;2022-12-18T08:46:33;-7.10;61.70
1351;DHT22;669;50.206;9.998;2022-12-18T08:49:02;-7.20;60.50
1351;DHT22;669;50.206;9.998;2022-12-18T08:51:30;-7.10;62.00
1351;DHT22;669;50.206;9.998;2022-12-18T08:53:58;-7.10;61.70
1351;DHT22;669;50.206;9.998;2022-12-18T08:56:26;-6.90;62.00
1351;DHT22;669;50.206;9.998;2022-12-18T08:58:56;-7.10;60.00
1351;DHT22;669;50.206;9.998;2022-12-18T09:01:24;-7.30;60.20
1351;DHT22;669;50.206;9.998;2022-12-18T09:03:52;-7.30;61.40
1351;DHT22;669;50.206;9.998;2022-12-18T09:06:22;-7.30;63.20
1351;DHT22;669;50.206;9.998;2022-12-18T09:08:50;-7.40;62.80
1351;DHT22;669;50.206;9.998;2022-12-18T09:11:20;-7.40;64.00
1351;DHT22;669;50.206;9.998;2022-12-18T09:13:49;-7.30;64.10
1351;DHT22;669;50.206;9.998;2022-12-18T09:16:18;-7.30;62.30
1351;DHT22;669;50.206;9.998;2022-12-18T09:18:46;-7.30;63.70
1351;DHT22;669;50.206;9.998;2022-12-18T09:21:16;-7.30;62.70
1351;DHT22;669;50.206;9.998;2022-12-18T09:23:49;-7.20;63.20
1351;DHT22;669;50.206;9.998;2022-12-18T09:26:17;-7.10;62.10
1351;DHT22;669;50.206;9.998;2022-12-18T09:28:45;-7.20;60.10
1351;DHT22;669;50.206;9.998;2022-12-18T09:31:14;-7.50;59.20
1351;DHT22;669;50.206;9.998;2022-12-18T09:33:44;-7.70;63.20
1351;DHT22;669;50.206;9.998;2022-12-18T09:36:13;-7.80;64.80
1351;DHT22;669;50.206;9.998;2022-12-18T09:38:42;-7.80;63.60
1351;DHT22;669;50.206;9.998;2022-12-18T09:41:23;-7.70;66.80
1351;DHT22;669;50.206;9.998;2022-12-18T09:43:55;-7.70;65.80
1351;DHT22;669;50.206;9.998;2022-12-18T09:46:27;-7.70;63.70
1351;DHT22;669;50.206;9.998;2022-12-18T09:49:01;-7.70;66.30
1351;DHT22;669;50.206;9.998;2022-12-18T09:51:39;-7.70;67.10
1351;DHT22;669;50.206;9.998;2022-12-18T09:54:14;-7.60;67.70
1351;DHT22;669;50.206;9.998;2022-12-18T09:56:43;-7.50;68.30
1351;DHT22;669;50.206;9.998;2022-12-18T09:59:21;-7.30;68.20
1351;DHT22;669;50.206;9.998;2022-12-18T10:01:50;-7.20;67.50
1351;DHT22;669;50.206;9.998;2022-12-18T10:04:20;-7.10;66.60
1351;DHT22;669;50.206;9.998;2022-12-18T10:06:54;-7.00;64.70
1351;DHT22;669;50.206;9.998;2022-12-18T10:09:28;-7.00;65.30
1351;DHT22;669;50.206;9.998;2022-12-18T10:12:05;-6.90;64.40
1351;DHT22;669;50.206;9.998;2022-12-18T10:14:41;-6.90;64.40
1351;DHT22;669;50.206;9.998;2022-12-18T10:17:17;-6.70;63.90
1351;DHT22;669;50.206;9.998;2022-12-18T10:19:52;-6.90;64.40
1351;DHT22;669;50.206;9.998;2022-12-18T10:22:30;-6.90;65.00
1351;DHT22;669;50.206;9.998;2022-12-18T10:25:05;-6.90;64.50
1351;DHT22;669;50.206;9.998;2022-12-18T10:27:34;-6.90;65.20
1351;DHT22;669;50.206;9.998;2022-12-18T10:30:12;-6.80;65.90
1351;DHT22;669;50.206;9.998;2022-12-18T10:32:41;-6.80;66.10
1351;DHT22;669;50.206;9.998;2022-12-18T10:35:17;-6.70;65.90
1351;DHT22;669;50.206;9.998;2022-12-18T10:38:06;-6.60;65.30
1351;DHT22;669;50.206;9.998;2022-12-18T10:40:49;-6.50;65.70
1351;DHT22;669;50.206;9.998;2022-12-18T10:43:22;-6.60;64.70
1351;DHT22;669;50.206;9.998;2022-12-18T10:46:03;-6.50;65.10
1351;DHT22;669;50.206;9.998;2022-12-18T10:48:34;-6.50;65.00
1351;DHT22;669;50.206;9.998;2022-12-18T10:51:03;-6.50;65.70
1351;DHT22;669;50.206;9.998;2022-12-18T10:53:41;-6.50;65.40
1351;DHT22;669;50.206;9.998;2022-12-18T10:56:20;-6.50;65.50
1351;DHT22;669;50.206;9.998;2022-12-18T10:58:56;-6.40;66.90
1351;DHT22;669;50.206;9.998;2022-12-18T11:01:24;-6.30;66.30
1351;DHT22;669;50.206;9.998;2022-12-18T11:04:08;-6.30;65.80
1351;DHT22;669;50.206;9.998;2022-12-18T11:06:53;-6.20;65.80
1351;DHT22;669;50.206;9.998;2022-12-18T11:09:22;-6.20;64.10
1351;DHT22;669;50.206;9.998;2022-12-18T11:11:52;-6.20;66.30
1351;DHT22;669;50.206;9.998;2022-12-18T11:14:23;-6.20;64.30
1351;DHT22;669;50.206;9.998;2022-12-18T11:16:52;-6.20;65.00
1351;DHT22;669;50.206;9.998;2022-12-18T11:19:41;-6.10;66.40
1351;DHT22;669;50.206;9.998;2022-12-18T11:22:20;-6.10;65.40
1351;DHT22;669;50.206;9.998;2022-12-18T11:24:57;-6.10;65.80
1351;DHT22;669;50.206;9.998;2022-12-18T11:27:50;-6.10;66.10
1351;DHT22;669;50.206;9.998;2022-12-18T11:30:24;-6.00;65.60
1351;DHT22;669;50.206;9.998;2022-12-18T11:32:55;-6.10;65.10
1351;DHT22;669;50.206;9.998;2022-12-18T11:35:34;-6.10;65.10
1351;DHT22;669;50.206;9.998;2022-12-18T11:38:10;-6.10;65.50
1351;DHT22;669;50.206;9.998;2022-12-18T11:40:43;-6.10;65.60
1351;DHT22;669;50.206;9.998;2022-12-18T11:43:16;-6.10;65.90
1351;DHT22;669;50.206;9.998;2022-12-18T11:45:52;-6.10;66.00
1351;DHT22;669;50.206;9.998;2022-12-18T11:48:23;-6.10;66.70
1351;DHT22;669;50.206;9.998;2022-12-18T11:50:54;-6.10;66.30
1351;DHT22;669;50.206;9.998;2022-12-18T11:53:25;-6.00;67.20
1351;DHT22;669;50.206;9.998;2022-12-18T11:56:04;-5.90;67.10
1351;DHT22;669;50.206;9.998;2022-12-18T11:58:43;-5.90;67.10
1351;DHT22;669;50.206;9.998;2022-12-18T12:01:19;-5.80;66.50
1351;DHT22;669;50.206;9.998;2022-12-18T12:04:00;-5.80;66.80
1351;DHT22;669;50.206;9.998;2022-12-18T12:06:37;-5.70;67.00
1351;DHT22;669;50.206;9.998;2022-12-18T12:09:16;-5.70;67.40
1351;DHT22;669;50.206;9.998;2022-12-18T12:11:55;-5.60;67.10
1351;DHT22;669;50.206;9.998;2022-12-18T12:14:38;-5.60;67.20
1351;DHT22;669;50.206;9.998;2022-12-18T12:17:12;-5.50;67.90
1351;DHT22;669;50.206;9.998;2022-12-18T12:19:48;-5.50;66.90
1351;DHT22;669;50.206;9.998;2022-12-18T12:22:24;-5.50;67.20
1351;DHT22;669;50.206;9.998;2022-12-18T12:25:12;-5.40;66.80
1351;DHT22;669;50.206;9.998;2022-12-18T12:27:49;-5.40;66.70
1351;DHT22;669;50.206;9.998;2022-12-18T12:30:21;-5.40;67.60
1351;DHT22;669;50.206;9.998;2022-12-18T12:33:02;-5.40;67.00
1351;DHT22;669;50.206;9.998;2022-12-18T12:35:38;-5.40;66.30
1351;DHT22;669;50.206;9.998;2022-12-18T12:38:12;-5.30;67.20
1351;DHT22;669;50.206;9.998;2022-12-18T12:40:47;-5.30;66.10
1351;DHT22;669;50.206;9.998;2022-12-18T12:43:33;-5.30;67.00
1351;DHT22;669;50.206;9.998;2022-12-18T12:46:04;-5.30;67.70
1351;DHT22;669;50.206;9.998;2022-12-18T12:48:40;-5.30;68.30
1351;DHT22;669;50.206;9.998;2022-12-18T12:51:14;-5.20;68.30
1351;DHT22;669;50.206;9.998;2022-12-18T12:53:44;-5.20;67.60
1351;DHT22;669;50.206;9.998;2022-12-18T12:56:16;-5.20;67.40
1351;DHT22;669;50.206;9.998;2022-12-18T12:58:58;-5.20;67.40
1351;DHT22;669;50.206;9.998;2022-12-18T13:01:33;-5.10;67.30
1351;DHT22;669;50.206;9.998;2022-12-18T13:04:15;-5.10;67.10
1351;DHT22;669;50.206;9.998;2022-12-18T13:06:52;-5.10;67.50
1351;DHT22;669;50.206;9.998;2022-12-18T13:09:22;-5.00;67.00
1351;DHT22;669;50.206;9.998;2022-12-18T13:11:51;-5.00;67.10
1351;DHT22;669;50.206;9.998;2022-12-18T13:14:38;-5.00;66.80
1351;DHT22;669;50.206;9.998;2022-12-18T13:17:29;-5.00;67.50
1351;DHT22;669;50.206;9.998;2022-12-18T13:20:12;-5.10;65.20
1351;DHT22;669;50.206;9.998;2022-12-18T13:22:44;-5.00;66.80
1351;DHT22;669;50.206;9.998;2022-12-18T13:25:31;-5.00;67.50
1351;DHT22;669;50.206;9.998;2022-12-18T13:28:10;-5.00;67.50
1351;DHT22;669;50.206;9.998;2022-12-18T13:30:50;-5.00;67.20
1351;DHT22;669;50.206;9.998;2022-12-18T13:33:49;-5.00;67.00
1351;DHT22;669;50.206;9.998;2022-12-18T13:36:37;-5.00;66.90
1351;DHT22;669;50.206;9.998;2022-12-18T13:42:40;-4.90;68.10
1351;DHT22;669;50.206;9.998;2022-12-18T13:45:39;-4.90;67.10
1351;DHT22;669;50.206;9.998;2022-12-18T13:48:19;-4.90;67.20
1351;DHT22;669;50.206;9.998;2022-12-18T13:50:52;-4.90;67.60
1351;DHT22;669;50.206;9.998;2022-12-18T13:53:23;-4.80;67.60
1351;DHT22;669;50.206;9.998;2022-12-18T13:55:53;-4.80;67.90
1351;DHT22;669;50.206;9.998;2022-12-18T13:58:22;-4.80;67.60
1351;DHT22;669;50.206;9.998;2022-12-18T14:00:51;-4.80;67.50
1351;DHT22;669;50.206;9.998;2022-12-18T14:03:22;-4.80;67.50
1351;DHT22;669;50.206;9.998;2022-12-18T14:05:55;-4.80;67.90
1351;DHT22;669;50.206;9.998;2022-12-18T14:08:29;-4.80;67.50
1351;DHT22;669;50.206;9.998;2022-12-18T14:11:01;-4.80;67.80
1351;DHT22;669;50.206;9.998;2022-12-18T14:13:32;-4.80;67.10
1351;DHT22;669;50.206;9.998;2022-12-18T14:16:04;-4.80;67.50
1351;DHT22;669;50.206;9.998;2022-12-18T14:18:38;-4.80;67.40
1351;DHT22;669;50.206;9.998;2022-12-18T14:21:18;-4.80;67.90
1351;DHT22;669;50.206;9.998;2022-12-18T14:23:47;-4.80;67.90
1351;DHT22;669;50.206;9.998;2022-12-18T14:26:23;-4.80;68.00
1351;DHT22;669;50.206;9.998;2022-12-18T14:28:54;-4.80;67.50
1351;DHT22;669;50.206;9.998;2022-12-18T14:31:25;-4.80;67.70
1351;DHT22;669;50.206;9.998;2022-12-18T14:33:53;-4.80;67.20
1351;DHT22;669;50.206;9.998;2022-12-18T14:36:23;-4.70;67.70
1351;DHT22;669;50.206;9.998;2022-12-18T14:38:53;-4.80;67.40
1351;DHT22;669;50.206;9.998;2022-12-18T14:41:22;-4.80;67.30
1351;DHT22;669;50.206;9.998;2022-12-18T14:43:52;-4.80;67.70
1351;DHT22;669;50.206;9.998;2022-12-18T14:46:34;-4.80;67.10
1351;DHT22;669;50.206;9.998;2022-12-18T14:49:05;-4.80;68.30
1351;DHT22;669;50.206;9.998;2022-12-18T14:51:47;-4.80;68.50
1351;DHT22;669;50.206;9.998;2022-12-18T14:54:17;-4.80;68.30
1351;DHT22;669;50.206;9.998;2022-12-18T14:56:47;-4.80;68.10
1351;DHT22;669;50.206;9.998;2022-12-18T14:59:19;-4.80;68.40
1351;DHT22;669;50.206;9.998;2022-12-18T15:01:58;-4.80;67.90
1351;DHT22;669;50.206;9.998;2022-12-18T15:04:29;-4.80;67.50
1351;DHT22;669;50.206;9.998;2022-12-18T15:07:14;-4.80;67.20
1351;DHT22;669;50.206;9.998;2022-12-18T15:09:43;-4.80;67.30
1351;DHT22;669;50.206;9.998;2022-12-18T15:12:24;-4.90;67.20
1351;DHT22;669;50.206;9.998;2022-12-18T15:14:53;-4.90;66.80
1351;DHT22;669;50.206;9.998;2022-12-18T15:17:23;-4.90;66.80
1351;DHT22;669;50.206;9.998;2022-12-18T15:19:57;-5.00;67.00
1351;DHT22;669;50.206;9.998;2022-12-18T15:22:28;-5.00;66.80
1351;DHT22;669;50.206;9.998;2022-12-18T15:24:57;-5.00;66.20
1351;DHT22;669;50.206;9.998;2022-12-18T15:27:29;-5.00;66.80
1351;DHT22;669;50.206;9.998;2022-12-18T15:30:20;-5.10;66.60
1351;DHT22;669;50.206;9.998;2022-12-18T15:32:50;-5.20;66.60
1351;DHT22;669;50.206;9.998;2022-12-18T15:35:21;-5.20;66.70
1351;DHT22;669;50.206;9.998;2022-12-18T15:37:49;-5.20;65.90
1351;DHT22;669;50.206;9.998;2022-12-18T15:40:18;-5.20;66.70
1351;DHT22;669;50.206;9.998;2022-12-18T15:42:47;-5.20;66.50
1351;DHT22;669;50.206;9.998;2022-12-18T15:45:33;-5.30;66.60
1351;DHT22;669;50.206;9.998;2022-12-18T15:48:09;-5.30;66.50
1351;DHT22;669;50.206;9.998;2022-12-18T15:50:42;-5.30;66.50
1351;DHT22;669;50.206;9.998;2022-12-18T15:53:10;-5.30;66.40
1351;DHT22;669;50.206;9.998;2022-12-18T15:55:38;-5.30;66.20
1351;DHT22;669;50.206;9.998;2022-12-18T15:58:27;-5.40;66.00
1351;DHT22;669;50.206;9.998;2022-12-18T16:00:56;-5.40;66.10
1351;DHT22;669;50.206;9.998;2022-12-18T16:03:26;-5.50;66.90
1351;DHT22;669;50.206;9.998;2022-12-18T16:05:54;-5.50;66.60
1351;DHT22;669;50.206;9.998;2022-12-18T16:08:23;-5.60;66.90
1351;DHT22;669;50.206;9.998;2022-12-18T16:10:51;-5.60;66.90
1351;DHT22;669;50.206;9.998;2022-12-18T16:13:19;-5.60;66.80
1351;DHT22;669;50.206;9.998;2022-12-18T16:15:48;-5.70;65.50
1351;DHT22;669;50.206;9.998;2022-12-18T16:18:16;-5.70;66.60
1351;DHT22;669;50.206;9.998;2022-12-18T16:20:45;-5.70;67.30
1351;DHT22;669;50.206;9.998;2022-12-18T16:23:13;-5.70;66.80
1351;DHT22;669;50.206;9.998;2022-12-18T16:25:41;-5.80;66.60
1351;DHT22;669;50.206;9.998;2022-12-18T16:28:08;-5.80;67.20
1351;DHT22;669;50.206;9.998;2022-12-18T16:30:36;-5.80;67.00
1351;DHT22;669;50.206;9.998;2022-12-18T16:33:05;-5.80;66.20
1351;DHT22;669;50.206;9.998;2022-12-18T16:35:33;-5.80;66.30
1351;DHT22;669;50.206;9.998;2022-12-18T16:38:05;-5.90;65.50
1351;DHT22;669;50.206;9.998;2022-12-18T16:40:33;-5.90;66.60
1351;DHT22;669;50.206;9.998;2022-12-18T16:43:21;-6.00;67.40
1351;DHT22;669;50.206;9.998;2022-12-18T16:45:48;-5.90;67.90
1351;DHT22;669;50.206;9.998;2022-12-18T16:48:17;-6.00;67.60
1351;DHT22;669;50.206;9.998;2022-12-18T16:50:45;-6.00;67.10